Time;durP1;ratioP1;P1;durP2;ratioP2;P2;SDS_P1;SDS_P2;PMS_P1;PMS_P2;Temp;Humidity;BMP_temperature;BMP_pressure;BME280_temperature;BME280_humidity;BME280_pressure;Samples;Min_cycle;Max_cycle;Signal;HPM_P1;HPM_P2
2022/10/26 00:01:40;;;;;;;2.60;1.67;;;;;;;9.74;95.94;101315.56;5115954;28;20440;-80
2022/10/26 00:04:05;;;;;;;2.10;1.80;;;;;;;9.76;95.68;101315.53;5115084;28;20028;-80
2022/10/26 00:06:30;;;;;;;1.80;1.70;;;;;;;9.77;95.70;101314.69;5114998;28;20515;-81
2022/10/26 00:08:56;;;;;;;1.67;1.58;;;;;;;9.78;95.59;101306.03;5115607;28;20392;-81
2022/10/26 00:11:22;;;;;;;1.77;1.63;;;;;;;9.80;95.99;101306.91;5115722;28;20027;-81
2022/10/26 00:13:48;;;;;;;1.83;1.53;;;;;;;9.80;96.34;101301.72;5114595;28;20114;-80
2022/10/26 00:16:23;;;;;;;2.20;1.87;;;;;;;9.82;96.16;101297.38;5115251;28;20373;-81
2022/10/26 00:18:48;;;;;;;3.03;1.95;;;;;;;9.84;95.86;101295.66;5115706;28;20020;-80
2022/10/26 00:21:14;;;;;;;2.10;1.90;;;;;;;9.85;95.91;101284.38;5114474;28;20494;-81
2022/10/26 00:23:40;;;;;;;3.17;2.20;;;;;;;9.86;96.18;101285.25;5115338;28;20027;-80
2022/10/26 00:26:06;;;;;;;1.90;1.80;;;;;;;9.90;96.20;101281.81;5115094;28;20280;-81
2022/10/26 00:28:32;;;;;;;1.90;1.80;;;;;;;9.91;95.88;101272.28;5115009;28;20020;-81
2022/10/26 00:31:02;;;;;;;2.37;1.70;;;;;;;9.95;96.22;101279.19;5115071;28;20066;-81
2022/10/26 00:33:28;;;;;;;1.63;1.52;;;;;;;9.98;96.22;101280.00;5115339;28;20023;-80
2022/10/26 00:35:54;;;;;;;2.13;1.80;;;;;;;9.99;96.16;101276.56;5114390;28;20024;-81
2022/10/26 00:38:19;;;;;;;1.83;1.70;;;;;;;10.01;96.28;101264.44;5115232;28;20023;-81
2022/10/26 00:40:46;;;;;;;4.77;2.50;;;;;;;10.00;98.76;101254.94;5114947;28;20028;-81
2022/10/26 00:43:32;;;;;;;3.85;2.50;;;;;;;10.02;96.96;101255.78;5114126;28;20034;-80
2022/10/26 00:45:58;;;;;;;2.60;2.30;;;;;;;10.05;96.78;101253.16;5115198;28;20035;-81
2022/10/26 00:48:28;;;;;;;3.33;2.40;;;;;;;10.09;96.41;101263.53;5114308;28;20058;-80
2022/10/26 00:50:57;;;;;;;2.10;2.00;;;;;;;10.11;96.54;101279.94;5114660;28;20067;-81
2022/10/26 00:53:23;;;;;;;2.38;2.10;;;;;;;10.13;96.49;101280.81;5114561;28;20418;-81
2022/10/26 00:55:51;;;;;;;2.40;2.20;;;;;;;10.15;97.59;101273.84;5114310;28;20032;-80
2022/10/26 00:58:18;;;;;;;3.03;2.10;;;;;;;10.17;96.94;101277.28;5114573;28;20027;-81
2022/10/26 01:00:44;;;;;;;2.30;2.10;;;;;;;10.18;96.60;101276.44;5101505;28;20067;-80
2022/10/26 01:03:10;;;;;;;2.43;2.00;;;;;;;10.18;97.14;101268.66;5093469;28;20063;-80
2022/10/26 01:05:39;;;;;;;2.50;1.77;;;;;;;10.19;96.80;101268.63;5094400;28;20030;-81
2022/10/26 01:08:05;;;;;;;2.13;1.77;;;;;;;10.22;97.48;101264.28;5096447;28;20092;-80
2022/10/26 01:10:31;;;;;;;2.53;1.90;;;;;;;10.23;97.29;101258.25;5113819;28;20027;-81
2022/10/26 01:12:58;;;;;;;3.58;2.17;;;;;;;10.24;97.48;101258.25;5114061;28;20119;-81
2022/10/26 01:15:41;;;;;;;2.70;2.20;;;;;;;10.26;97.43;101251.28;5113910;28;20028;-80
2022/10/26 01:18:29;;;;;;;3.40;2.55;;;;;;;10.30;96.92;101250.41;5113299;28;20032;-80
2022/10/26 01:21:28;;;;;;;2.92;2.30;;;;;;;10.32;97.77;101235.69;5114409;28;20032;-81
2022/10/26 01:24:08;;;;;;;2.58;2.25;;;;;;;10.35;97.39;101246.06;5113314;28;20027;-81
2022/10/26 01:26:46;;;;;;;2.78;2.40;;;;;;;10.39;97.08;101246.03;5114250;28;20028;-81
2022/10/26 01:29:35;;;;;;;3.97;2.50;;;;;;;10.40;97.74;101239.97;5113830;28;20035;-81
2022/10/26 01:32:22;;;;;;;3.40;2.65;;;;;;;10.39;98.59;101235.66;5112781;28;20453;-81
2022/10/26 01:35:07;;;;;;;4.50;2.83;;;;;;;10.40;97.34;101238.25;5114247;28;20038;-81
2022/10/26 01:37:39;;;;;;;3.38;2.50;;;;;;;10.41;97.83;101226.13;5113405;28;20027;-80
2022/10/26 01:40:21;;;;;;;3.80;2.70;;;;;;;10.43;98.40;101224.41;5113671;28;20028;-82
2022/10/26 01:42:52;;;;;;;4.15;2.50;;;;;;;10.44;97.92;101228.72;5114119;28;20030;-81
2022/10/26 01:45:18;;;;;;;3.35;2.40;;;;;;;10.46;97.78;101226.97;5113460;28;20049;-81
2022/10/26 01:47:46;;;;;;;3.27;2.37;;;;;;;10.47;97.70;101224.34;5113925;28;20531;-80
2022/10/26 01:50:11;;;;;;;3.13;2.25;;;;;;;10.49;97.92;101221.72;5113427;28;20053;-80
2022/10/26 01:52:37;;;;;;;3.20;2.27;;;;;;;10.51;97.54;101220.00;5113046;28;20116;-81
2022/10/26 01:55:05;;;;;;;2.57;2.20;;;;;;;10.52;97.68;101215.69;5113654;28;20030;-81
2022/10/26 01:57:35;;;;;;;2.03;1.88;;;;;;;10.53;97.52;101218.25;5113336;28;20061;-81
2022/10/26 02:00:10;;;;;;;1.90;1.80;;;;;;;10.54;97.49;101209.59;5112870;28;20028;-81
2022/10/26 02:02:47;;;;;;;1.90;1.70;;;;;;;10.55;97.34;101206.13;5113601;28;20106;-81
2022/10/26 02:05:28;;;;;;;1.80;1.70;;;;;;;10.56;97.34;101201.78;5113172;28;20035;-80
2022/10/26 02:08:30;;;;;;;2.00;1.90;;;;;;;10.54;97.38;101199.22;5112638;28;20035;-81
2022/10/26 02:11:15;;;;;;;2.28;1.70;;;;;;;10.53;97.38;101207.88;5113265;28;20452;-81
2022/10/26 02:13:40;;;;;;;3.08;1.50;;;;;;;10.50;97.43;101210.47;5113007;28;20054;-81
2022/10/26 02:16:20;;;;;;;1.60;1.50;;;;;;;10.48;97.25;101205.31;5113375;28;20425;-80
2022/10/26 02:19:01;;;;;;;3.15;2.20;;;;;;;10.47;96.96;101195.81;5113512;28;20476;-81
2022/10/26 02:21:37;;;;;;;2.33;1.98;;;;;;;10.45;97.21;101194.94;5112458;28;20024;-81
2022/10/26 02:24:05;;;;;;;1.90;1.80;;;;;;;10.44;97.30;101190.63;5113288;28;20099;-80
2022/10/26 02:26:32;;;;;;;2.08;1.98;;;;;;;10.46;97.02;101188.91;5112981;28;20027;-81
2022/10/26 02:29:01;;;;;;;3.42;2.00;;;;;;;10.47;97.15;101197.56;5112346;28;20027;-81
2022/10/26 02:31:29;;;;;;;2.15;1.95;;;;;;;10.48;97.04;101191.47;5112975;28;20516;-81
2022/10/26 02:33:59;;;;;;;1.85;1.75;;;;;;;10.50;97.18;101194.91;5112619;28;20024;-80
2022/10/26 02:36:29;;;;;;;2.38;1.77;;;;;;;10.50;96.55;101193.19;5113366;28;20068;-81
2022/10/26 02:38:56;;;;;;;2.67;1.92;;;;;;;10.52;97.12;101195.75;5112774;28;20033;-81
2022/10/26 02:41:25;;;;;;;2.65;1.73;;;;;;;10.52;96.85;101185.38;5112406;28;20110;-81
2022/10/26 02:43:58;;;;;;;1.90;1.80;;;;;;;10.54;96.83;101188.81;5112730;28;20107;-81
2022/10/26 02:46:26;;;;;;;2.17;1.90;;;;;;;10.55;96.94;101187.97;5113388;28;20110;-81
2022/10/26 02:48:52;;;;;;;1.90;1.75;;;;;;;10.55;96.98;101185.34;5112034;28;20094;-81
2022/10/26 02:51:32;;;;;;;2.10;1.90;;;;;;;10.55;97.29;101182.75;5112789;28;20118;-80
2022/10/26 02:54:09;;;;;;;2.53;2.00;;;;;;;10.54;96.77;101173.25;5116981;28;20024;-81
2022/10/26 02:56:49;;;;;;;4.25;2.63;;;;;;;10.54;97.53;101181.03;5116408;28;20038;-81
2022/10/26 02:59:18;;;;;;;3.03;2.20;;;;;;;10.54;97.16;101180.16;5117396;28;20387;-81
2022/10/26 03:01:44;;;;;;;3.67;2.20;;;;;;;10.54;97.07;101177.56;5117226;28;20031;-81
2022/10/26 03:04:09;;;;;;;2.30;1.87;;;;;;;10.53;97.42;101178.47;5116198;28;20785;-81
2022/10/26 03:06:34;;;;;;;2.27;2.07;;;;;;;10.52;96.96;101176.75;5117004;28;20288;-80
2022/10/26 03:09:00;;;;;;;2.30;2.07;;;;;;;10.50;97.13;101175.03;5116156;28;20035;-80
2022/10/26 03:11:25;;;;;;;2.23;2.03;;;;;;;10.51;97.18;101181.06;5117143;28;20083;-81
2022/10/26 03:13:50;;;;;;;2.00;1.90;;;;;;;10.51;96.99;101173.28;5115861;28;20038;-80
2022/10/26 03:16:15;;;;;;;2.60;1.80;;;;;;;10.52;97.21;101172.41;5116248;28;20019;-81
2022/10/26 03:18:41;;;;;;;2.00;1.80;;;;;;;10.52;96.95;101174.16;5116694;28;20028;-81
2022/10/26 03:21:06;;;;;;;2.10;1.90;;;;;;;10.52;97.29;101171.56;5116404;28;20024;-81
2022/10/26 03:23:32;;;;;;;1.87;1.70;;;;;;;10.51;97.01;101170.69;5116358;28;20027;-81
2022/10/26 03:25:57;;;;;;;1.70;1.60;;;;;;;10.52;97.09;101174.16;5116484;28;20028;-81
2022/10/26 03:28:23;;;;;;;1.17;1.17;;;;;;;10.53;97.20;101176.72;5116708;28;20030;-81
2022/10/26 03:30:48;;;;;;;1.40;1.30;;;;;;;10.54;96.91;101172.38;5115403;28;20044;-81
2022/10/26 03:33:13;;;;;;;2.27;1.90;;;;;;;10.51;97.60;101173.28;5116338;28;20023;-81
2022/10/26 03:35:38;;;;;;;2.90;1.87;;;;;;;10.49;97.66;101165.53;5116480;28;20076;-81
2022/10/26 03:38:04;;;;;;;2.13;1.83;;;;;;;10.51;97.06;101165.50;5115521;28;20114;-81
2022/10/26 03:40:29;;;;;;;1.77;1.67;;;;;;;10.50;97.26;101169.84;5116352;28;20031;-81
2022/10/26 03:42:54;;;;;;;1.60;1.50;;;;;;;10.52;97.12;101172.41;5116315;28;20027;-81
2022/10/26 03:45:20;;;;;;;1.70;1.60;;;;;;;10.52;97.75;101161.19;5115668;28;20028;-81
2022/10/26 03:47:47;;;;;;;2.67;1.73;;;;;;;10.51;97.55;101157.72;5116136;28;20019;-81
2022/10/26 03:50:14;;;;;;;2.67;2.00;;;;;;;10.50;97.47;101161.19;5115876;28;20467;-81
2022/10/26 03:52:39;;;;;;;;;;;;;;;10.52;97.54;101162.03;5115697;28;20555;-81
2022/10/26 03:55:05;;;;;;;2.80;1.80;;;;;;;10.52;97.81;101162.03;5115745;28;20005;-81
2022/10/26 03:57:30;;;;;;;2.95;1.70;;;;;;;10.51;97.43;101157.72;5116552;28;20027;-81
2022/10/26 03:59:56;;;;;;;2.83;1.77;;;;;;;10.54;97.31;101162.00;5115040;28;20095;-81
2022/10/26 04:02:21;;;;;;;3.80;2.00;;;;;;;10.55;97.78;101154.22;5115921;28;20035;-81
2022/10/26 04:04:46;;;;;;;2.20;2.00;;;;;;;10.54;97.43;101155.09;5115334;28;20024;-81
2022/10/26 04:07:12;;;;;;;2.20;2.00;;;;;;;10.53;97.63;101155.13;5114302;28;20383;-81
2022/10/26 04:09:37;;;;;;;2.10;1.90;;;;;;;10.53;97.57;101157.72;5115342;28;20026;-81
2022/10/26 04:12:02;;;;;;;1.73;1.60;;;;;;;10.55;97.18;101166.31;5115229;28;20024;-81
2022/10/26 04:14:28;;;;;;;1.77;1.67;;;;;;;10.54;97.38;101164.59;5115093;28;20015;-81
2022/10/26 04:16:53;;;;;;;2.13;1.70;;;;;;;10.54;97.23;101168.06;5115522;28;20027;-81
2022/10/26 04:19:18;;;;;;;1.57;1.47;;;;;;;10.55;97.58;101167.19;5114820;28;20034;-81
2022/10/26 04:21:43;;;;;;;3.20;1.73;;;;;;;10.53;97.52;101161.16;5115429;28;20497;-81
2022/10/26 04:24:10;;;;;;;1.53;1.43;;;;;;;10.56;97.58;101168.91;5115623;28;20043;-81
2022/10/26 04:26:35;;;;;;;1.30;1.20;;;;;;;10.58;97.47;101158.50;5114776;28;20037;-81
2022/10/26 04:29:03;;;;;;;2.93;1.40;;;;;;;10.58;97.47;101154.19;5115232;28;20019;-81
2022/10/26 04:31:28;;;;;;;1.40;1.30;;;;;;;10.59;97.58;101160.22;5115023;28;20130;-81
2022/10/26 04:33:54;;;;;;;1.23;1.20;;;;;;;10.59;97.45;101150.69;5114181;28;20111;-81
2022/10/26 04:36:19;;;;;;;1.37;1.20;;;;;;;10.62;97.38;101155.03;5114802;28;20043;-81
2022/10/26 04:38:44;;;;;;;1.10;1.10;;;;;;;10.63;97.50;101156.75;5115295;28;20072;-81
2022/10/26 04:41:09;;;;;;;2.10;1.80;;;;;;;10.66;97.58;101149.78;5114197;28;20042;-81
2022/10/26 04:43:35;;;;;;;1.60;1.50;;;;;;;10.66;97.46;101147.19;5115400;28;20019;-81
2022/10/26 04:46:00;;;;;;;1.60;1.50;;;;;;;10.73;97.40;101149.69;5114850;28;20023;-81
2022/10/26 04:48:25;;;;;;;2.80;1.60;;;;;;;10.71;97.43;101136.75;5114420;28;20019;-81
2022/10/26 04:50:51;;;;;;;1.83;1.40;;;;;;;10.72;97.49;101142.78;5114671;28;20094;-81
2022/10/26 04:53:16;;;;;;;1.43;1.23;;;;;;;10.72;97.67;101145.38;5115346;28;20361;-81
2022/10/26 04:55:41;;;;;;;1.27;1.27;;;;;;;10.76;97.56;101149.66;5114142;28;20411;-81
2022/10/26 04:58:06;;;;;;;1.33;1.23;;;;;;;10.76;97.96;101149.66;5114601;28;20023;-81
2022/10/26 05:00:32;;;;;;;2.33;1.40;;;;;;;10.77;97.72;101153.97;5114946;28;20024;-80
2022/10/26 05:03:13;;;;;;;1.60;1.50;;;;;;;10.79;98.03;101152.25;5113854;28;20044;-80
2022/10/26 05:05:41;;;;;;;2.20;1.88;;;;;;;10.79;98.30;101153.09;5115085;28;20380;-81
2022/10/26 05:08:19;;;;;;;1.70;1.60;;;;;;;10.80;98.18;101160.00;5114590;28;20024;-81
2022/10/26 05:10:48;;;;;;;1.73;1.55;;;;;;;10.82;97.96;101165.16;5113782;28;20563;-81
2022/10/26 05:13:16;;;;;;;1.80;1.70;;;;;;;10.85;98.20;101161.69;5114092;28;20388;-81
2022/10/26 05:15:48;;;;;;;1.90;1.42;;;;;;;10.85;98.11;101153.91;5112973;28;20043;-81
2022/10/26 05:18:16;;;;;;;1.20;1.00;;;;;;;10.85;98.66;101154.75;5113941;28;20028;-81
2022/10/26 05:20:41;;;;;;;1.27;1.20;;;;;;;10.88;98.30;101165.09;5114560;28;20431;-81
2022/10/26 05:23:10;;;;;;;1.30;1.20;;;;;;;10.87;98.67;101159.91;5113627;28;20059;-81
2022/10/26 05:25:36;;;;;;;1.88;1.30;;;;;;;10.88;98.34;101156.44;5114181;28;20020;-81
2022/10/26 05:28:04;;;;;;;2.35;1.67;;;;;;;10.90;98.87;101160.75;5114113;28;20027;-81
2022/10/26 05:30:31;;;;;;;2.10;1.70;;;;;;;10.91;98.70;101166.81;5113249;28;20126;-81
2022/10/26 05:32:57;;;;;;;1.70;1.60;;;;;;;10.91;98.56;101167.69;5114237;28;20020;-81
2022/10/26 05:35:24;;;;;;;2.38;1.13;;;;;;;10.93;98.17;101165.91;5113841;28;20027;-81
2022/10/26 05:37:50;;;;;;;1.58;1.48;;;;;;;10.94;98.13;101166.78;5113304;28;20093;-80
2022/10/26 05:40:16;;;;;;;2.00;1.33;;;;;;;10.95;98.45;101169.34;5114244;28;20015;-81
2022/10/26 05:42:41;;;;;;;1.23;1.13;;;;;;;10.97;98.10;101170.19;5113960;28;20031;-81
2022/10/26 05:45:07;;;;;;;1.50;1.40;;;;;;;10.97;98.71;101164.16;5112816;28;20142;-81
2022/10/26 05:47:40;;;;;;;1.53;1.43;;;;;;;10.97;98.52;101166.75;5113371;28;20173;-81
2022/10/26 05:50:06;;;;;;;1.92;1.33;;;;;;;10.97;99.01;101162.41;5113831;28;20030;-81
2022/10/26 05:52:38;;;;;;;1.47;1.37;;;;;;;10.99;98.98;101167.56;5113200;28;20020;-81
2022/10/26 05:55:04;;;;;;;1.00;1.00;;;;;;;10.99;98.59;101171.91;5113597;28;20490;-81
2022/10/26 05:57:29;;;;;;;1.77;1.30;;;;;;;10.99;98.76;101169.31;5113855;28;20031;-81
2022/10/26 05:59:55;;;;;;;1.40;1.30;;;;;;;11.00;98.58;101176.22;5112740;28;20345;-81
2022/10/26 06:02:50;;;;;;;2.10;0.80;;;;;;;11.01;98.70;101177.97;5113546;28;20019;-81
2022/10/26 06:05:22;;;;;;;1.33;1.23;;;;;;;11.02;98.70;101185.72;5112329;28;20032;-81
2022/10/26 06:07:48;;;;;;;1.23;1.13;;;;;;;11.03;98.86;101184.84;5113553;28;20357;-82
2022/10/26 06:10:14;;;;;;;1.20;1.10;;;;;;;11.04;98.81;101186.56;5113718;28;20031;-82
2022/10/26 06:12:40;;;;;;;1.03;1.03;;;;;;;11.05;98.81;101190.00;5113067;28;20035;-82
2022/10/26 06:15:06;;;;;;;1.30;1.20;;;;;;;11.05;99.26;101195.19;5113344;28;20304;-82
2022/10/26 06:17:37;;;;;;;1.47;1.10;;;;;;;11.07;98.74;101199.53;5113983;28;20027;-83
2022/10/26 06:20:36;;;;;;;1.02;1.00;;;;;;;11.09;98.75;101199.50;5112547;28;20049;-80
2022/10/26 06:23:35;;;;;;;1.20;1.10;;;;;;;11.09;99.00;101202.09;5112982;28;20105;-80
2022/10/26 06:26:10;;;;;;;1.23;1.20;;;;;;;11.06;98.80;101197.81;5112503;28;20055;-80
2022/10/26 06:28:46;;;;;;;1.20;1.10;;;;;;;11.04;99.06;101193.47;5113366;28;20570;-80
2022/10/26 06:31:13;;;;;;;1.02;0.90;;;;;;;11.03;98.86;101195.22;5112900;28;20051;-80
2022/10/26 06:33:38;;;;;;;;;;;;;;;11.02;98.87;101190.06;5112665;28;20023;-80
2022/10/26 06:36:20;;;;;;;1.33;1.13;;;;;;;11.00;98.58;101195.25;5113151;28;19964;-80
2022/10/26 06:38:47;;;;;;;1.85;1.17;;;;;;;11.00;98.75;101195.25;5113240;28;20031;-80
2022/10/26 06:41:15;;;;;;;1.00;0.93;;;;;;;11.00;98.58;101194.41;5112389;28;20016;-80
2022/10/26 06:43:41;;;;;;;1.27;1.10;;;;;;;10.97;98.64;101190.97;5113377;28;20027;-80
2022/10/26 06:46:08;;;;;;;2.93;1.40;;;;;;;10.96;98.63;101181.44;5112952;28;20026;-80
2022/10/26 06:48:52;;;;;;;1.75;1.20;;;;;;;10.95;98.50;101184.94;5112557;28;20024;-81
2022/10/26 06:51:19;;;;;;;1.98;1.20;;;;;;;10.96;98.45;101181.44;5113287;28;20074;-82
2022/10/26 06:53:56;;;;;;;1.42;1.33;;;;;;;10.99;98.61;101177.09;5113046;28;20046;-81
2022/10/26 06:56:23;;;;;;;;;;;;;;;11.03;98.77;101178.81;5113183;28;20023;-81
2022/10/26 06:58:51;;;;;;;1.40;1.30;;;;;;;11.05;98.74;101182.22;5113021;28;20260;-82
2022/10/26 07:01:17;;;;;;;1.92;1.60;;;;;;;11.07;98.87;101186.53;5111520;28;20042;-81
2022/10/26 07:03:42;;;;;;;2.80;1.73;;;;;;;11.09;98.81;101189.94;5113274;28;20388;-81
2022/10/26 07:06:08;;;;;;;1.70;1.57;;;;;;;11.11;98.98;101177.81;5111445;28;20023;-81
2022/10/26 07:08:34;;;;;;;1.77;1.67;;;;;;;11.13;98.78;101188.19;5093877;28;20060;-81
2022/10/26 07:10:59;;;;;;;2.07;1.70;;;;;;;11.15;99.32;101185.56;5112949;28;20114;-81
2022/10/26 07:13:24;;;;;;;2.23;1.77;;;;;;;11.17;99.04;101194.22;5113048;28;20022;-81
2022/10/26 07:15:50;;;;;;;1.70;1.60;;;;;;;11.18;99.58;101201.13;5112207;28;20035;-81
2022/10/26 07:18:15;;;;;;;1.60;1.50;;;;;;;11.19;98.96;101208.91;5112967;28;20019;-81
2022/10/26 07:20:40;;;;;;;1.67;1.47;;;;;;;11.21;99.17;101206.28;5112981;28;20019;-81
2022/10/26 07:23:07;;;;;;;1.60;1.50;;;;;;;11.21;99.11;101204.56;5111838;28;20519;-81
2022/10/26 07:25:34;;;;;;;1.50;1.40;;;;;;;11.23;99.27;101212.31;5112950;28;20055;-81
2022/10/26 07:27:59;;;;;;;1.95;1.42;;;;;;;11.24;99.10;101206.25;5112814;28;20054;-81
2022/10/26 07:30:26;;;;;;;2.63;1.80;;;;;;;11.26;99.60;101226.13;5111488;28;20067;-81
2022/10/26 07:33:07;;;;;;;2.65;1.48;;;;;;;11.30;99.57;101226.97;5112254;28;20027;-81
2022/10/26 07:35:33;;;;;;;2.03;1.60;;;;;;;11.32;99.63;101230.38;5112965;28;20023;-81
2022/10/26 07:37:58;;;;;;;1.35;1.25;;;;;;;11.36;99.62;101236.44;5112448;28;20384;-81
2022/10/26 07:40:24;;;;;;;1.97;1.80;;;;;;;11.37;100.00;101228.59;5116558;28;20151;-82
2022/10/26 07:42:50;;;;;;;3.03;2.00;;;;;;;11.41;100.00;101221.63;5116063;28;20074;-79
2022/10/26 07:45:15;;;;;;;2.97;2.10;;;;;;;11.46;100.00;101229.34;5115593;28;20020;-79
2022/10/26 07:47:40;;;;;;;2.57;2.20;;;;;;;11.51;100.00;101236.22;5116350;28;20483;-80
2022/10/26 07:50:07;;;;;;;4.50;2.50;;;;;;;11.57;100.00;101241.34;5116314;28;20050;-83
2022/10/26 07:52:34;;;;;;;3.33;2.58;;;;;;;11.64;100.00;101244.72;5115628;28;20047;-80
2022/10/26 07:55:00;;;;;;;3.42;2.20;;;;;;;11.77;100.00;101262.75;5116293;28;20387;-79
2022/10/26 07:57:25;;;;;;;2.10;1.90;;;;;;;11.87;100.00;101261.75;5114605;28;20027;-80
2022/10/26 07:59:50;;;;;;;3.17;2.30;;;;;;;11.96;100.00;101259.03;5115906;28;20097;-79
2022/10/26 08:02:15;;;;;;;2.83;2.30;;;;;;;12.04;99.15;101253.75;5115594;28;20502;-79
2022/10/26 08:04:41;;;;;;;3.17;2.27;;;;;;;12.11;100.00;101259.69;5115511;28;20024;-80
2022/10/26 08:07:06;;;;;;;2.90;2.30;;;;;;;12.19;100.00;101261.31;5115046;28;20024;-79
2022/10/26 08:09:31;;;;;;;1.97;1.77;;;;;;;12.29;100.00;101274.16;5115718;28;20020;-80
2022/10/26 08:11:56;;;;;;;3.33;1.90;;;;;;;12.36;100.00;101262.78;5114915;28;20475;-79
2022/10/26 08:14:22;;;;;;;3.60;2.27;;;;;;;12.47;100.00;101270.41;5115941;28;20034;-79
2022/10/26 08:16:51;;;;;;;4.20;2.10;;;;;;;12.57;100.00;101281.56;5115845;28;20027;-80
2022/10/26 08:19:16;;;;;;;2.45;2.20;;;;;;;12.71;100.00;101266.56;5115161;28;20038;-79
2022/10/26 08:21:41;;;;;;;4.63;2.67;;;;;;;12.89;100.00;101267.94;5115684;28;20023;-80
2022/10/26 08:24:07;;;;;;;3.00;2.37;;;;;;;13.10;100.00;101271.06;5115776;28;20011;-80
2022/10/26 08:26:32;;;;;;;3.23;2.40;;;;;;;13.30;100.00;101270.66;5114442;28;20361;-79
2022/10/26 08:28:57;;;;;;;4.60;2.10;;;;;;;13.43;100.00;101269.56;5115266;28;20026;-80
2022/10/26 08:31:23;;;;;;;2.40;2.10;;;;;;;13.54;99.46;101271.97;5115396;28;20050;-80
2022/10/26 08:33:48;;;;;;;4.07;2.53;;;;;;;13.72;98.31;101278.53;5114934;28;20028;-80
2022/10/26 08:36:18;;;;;;;3.07;2.30;;;;;;;13.83;98.23;101278.28;5115109;28;20015;-80
2022/10/26 08:38:46;;;;;;;2.92;2.40;;;;;;;13.93;97.31;101286.78;5115116;28;20031;-80
2022/10/26 08:41:12;;;;;;;3.67;2.20;;;;;;;14.04;97.10;101290.00;5113584;28;20112;-80
2022/10/26 08:43:48;;;;;;;3.95;2.50;;;;;;;14.14;96.89;101285.41;5114101;28;20452;-80
2022/10/26 08:46:20;;;;;;;2.38;2.08;;;;;;;14.27;97.28;101292.97;5114794;28;20416;-80
2022/10/26 08:49:01;;;;;;;3.65;2.20;;;;;;;14.35;95.23;101281.47;5113980;28;20020;-80
2022/10/26 08:51:38;;;;;;;4.35;2.42;;;;;;;14.47;96.21;101292.50;5114518;28;20470;-80
2022/10/26 08:54:34;;;;;;;4.90;2.63;;;;;;;14.60;95.95;101280.88;5113222;28;20035;-80
2022/10/26 08:57:02;;;;;;;;;;;;;;;14.72;95.94;101284.94;5115363;28;20024;-80
2022/10/26 08:59:42;;;;;;;4.20;2.35;;;;;;;14.87;94.17;101272.38;5114891;28;19955;-81
2022/10/26 09:02:16;;;;;;;4.13;2.60;;;;;;;14.98;94.70;101270.34;5113683;28;20025;-81
2022/10/26 09:04:43;;;;;;;4.60;2.30;;;;;;;15.11;93.82;101260.41;5114604;28;20028;-79
2022/10/26 09:07:17;;;;;;;;;;;;;;;15.22;93.13;101262.72;5114553;28;20031;-79
2022/10/26 09:09:55;;;;;;;3.70;2.22;;;;;;;15.36;92.97;101270.16;5114311;28;19939;-81
2022/10/26 09:12:38;;;;;;;2.78;2.25;;;;;;;15.49;94.29;101284.63;5114657;28;20046;-81
2022/10/26 09:15:06;;;;;;;2.67;2.10;;;;;;;15.61;93.86;101283.38;5113714;28;20471;-80
2022/10/26 09:17:46;;;;;;;2.95;2.00;;;;;;;15.71;93.78;101290.06;5114691;28;20028;-81
2022/10/26 09:21:01;;;;;;;2.42;2.10;;;;;;;15.86;92.54;101304.50;5114320;28;20031;-81
2022/10/26 09:23:55;;;;;;;2.20;2.00;;;;;;;15.99;92.65;101311.97;5090070;28;20040;-81
2022/10/26 09:26:30;;;;;;;2.38;1.90;;;;;;;16.09;92.48;101317.78;5114449;28;20102;-81
2022/10/26 09:29:00;;;;;;;3.40;2.10;;;;;;;16.17;92.09;101326.25;5113227;28;20408;-81
2022/10/26 09:31:25;;;;;;;3.80;2.10;;;;;;;16.28;91.43;101328.53;5113910;28;20051;-81
2022/10/26 09:33:53;;;;;;;4.30;2.10;;;;;;;16.40;89.88;101337.75;5113917;28;20023;-81
2022/10/26 09:36:21;;;;;;;2.58;2.13;;;;;;;16.48;89.73;101333.16;5113143;28;20027;-82
2022/10/26 09:38:56;;;;;;;3.88;2.08;;;;;;;16.59;88.79;101349.38;5114403;28;20023;-81
2022/10/26 09:41:45;;;;;;;3.70;2.27;;;;;;;16.68;89.10;101353.44;5114359;28;20034;-80
2022/10/26 09:44:16;;;;;;;3.97;2.10;;;;;;;16.75;88.97;101360.22;5092727;28;20032;-81
2022/10/26 09:46:59;;;;;;;4.68;2.30;;;;;;;16.77;87.70;101357.53;5094002;28;20054;-82
2022/10/26 09:49:41;;;;;;;2.53;2.00;;;;;;;16.76;88.54;101356.69;5103244;28;20024;-83
2022/10/26 09:52:07;;;;;;;3.38;2.20;;;;;;;16.73;88.48;101359.41;5113054;28;20467;-83
2022/10/26 09:54:32;;;;;;;3.87;2.30;;;;;;;16.69;86.63;101363.03;5113936;28;20027;-83
2022/10/26 09:57:01;;;;;;;2.93;2.10;;;;;;;16.66;87.29;101358.75;5112741;28;20272;-83
2022/10/26 09:59:26;;;;;;;5.30;2.33;;;;;;;16.65;86.16;101356.19;5113276;28;20060;-83
2022/10/26 10:01:52;;;;;;;4.75;2.42;;;;;;;16.70;86.11;101361.28;5112672;28;20372;-82
2022/10/26 10:04:24;;;;;;;4.33;2.40;;;;;;;16.77;88.04;101375.88;5113182;28;20140;-83
2022/10/26 10:07:02;;;;;;;3.33;2.03;;;;;;;16.88;88.37;101383.41;5113734;28;20107;-82
2022/10/26 10:09:27;;;;;;;3.53;2.03;;;;;;;16.94;85.32;101385.84;5113503;28;20110;-82
2022/10/26 10:11:55;;;;;;;2.90;2.10;;;;;;;17.02;87.33;101380.34;5112626;28;20110;-82
2022/10/26 10:14:26;;;;;;;2.42;1.90;;;;;;;17.11;88.03;101382.66;5113737;28;20023;-82
2022/10/26 10:17:01;;;;;;;1.77;1.67;;;;;;;17.23;88.51;101387.47;5113135;28;20027;-82
2022/10/26 10:19:29;;;;;;;1.85;1.70;;;;;;;17.29;88.46;101392.50;5112769;28;20027;-82
2022/10/26 10:21:58;;;;;;;1.98;1.63;;;;;;;17.36;86.54;101401.00;5113208;28;20424;-82
2022/10/26 10:24:26;;;;;;;3.30;1.90;;;;;;;17.42;85.49;101400.81;5113693;28;20019;-82
2022/10/26 10:26:59;;;;;;;3.33;2.00;;;;;;;17.46;86.46;101409.44;5111728;28;20480;-82
2022/10/26 10:29:29;;;;;;;3.15;1.92;;;;;;;17.51;87.08;101414.50;5113362;28;20027;-82
2022/10/26 10:31:56;;;;;;;2.35;1.70;;;;;;;17.52;86.53;101419.69;5113066;28;20047;-80
2022/10/26 10:34:22;;;;;;;3.20;1.80;;;;;;;17.60;87.21;101417.69;5112614;28;20023;-81
2022/10/26 10:36:49;;;;;;;2.43;1.90;;;;;;;17.67;86.49;101420.94;5113371;28;20024;-79
2022/10/26 10:39:39;;;;;;;3.03;1.80;;;;;;;17.76;85.59;101419.72;5110726;28;20061;-81
2022/10/26 10:42:14;;;;;;;2.67;1.80;;;;;;;17.82;86.54;101418.66;5113160;28;20027;-81
2022/10/26 10:44:42;;;;;;;1.92;1.65;;;;;;;17.90;87.43;101427.13;5113315;28;20490;-81
2022/10/26 10:47:18;;;;;;;2.42;1.77;;;;;;;17.95;85.45;101435.69;5112558;28;20032;-81
2022/10/26 10:49:49;;;;;;;;;;;;;;;17.97;84.84;101439.16;5113827;28;20024;-81
2022/10/26 10:52:24;;;;;;;4.90;2.20;;;;;;;18.02;85.56;101438.97;5113004;28;19912;-81
2022/10/26 10:54:56;;;;;;;2.17;1.98;;;;;;;18.08;85.57;101437.88;5111801;28;20039;-81
2022/10/26 10:57:54;;;;;;;3.58;1.70;;;;;;;18.15;84.97;101444.59;5113117;28;20536;-81
2022/10/26 11:00:20;;;;;;;2.20;1.83;;;;;;;18.20;86.07;101442.69;5112641;28;20036;-81
2022/10/26 11:03:15;;;;;;;3.33;2.00;;;;;;;18.26;83.65;101444.22;5112661;28;20494;-82
2022/10/26 11:05:49;;;;;;;2.47;2.00;;;;;;;18.25;80.71;101458.25;5112728;28;20467;-82
2022/10/26 11:08:22;;;;;;;2.67;2.10;;;;;;;18.25;83.67;101459.09;5111833;28;20463;-82
2022/10/26 11:10:57;;;;;;;3.35;1.83;;;;;;;18.24;84.46;101461.81;5113364;28;20028;-81
2022/10/26 11:13:39;;;;;;;4.50;2.00;;;;;;;18.25;83.97;101464.34;5114211;28;20023;-82
2022/10/26 11:16:12;;;;;;;3.25;1.98;;;;;;;18.28;84.38;101461.63;5115855;28;20031;-86
2022/10/26 11:18:42;;;;;;;3.10;2.15;;;;;;;18.33;82.88;101470.22;5117705;28;20383;-86
2022/10/26 11:21:24;;;;;;;2.58;1.80;;;;;;;18.38;83.92;101480.53;5117051;28;20043;-81
2022/10/26 11:24:18;;;;;;;2.15;1.75;;;;;;;18.39;83.34;101481.38;5116016;28;20384;-82
2022/10/26 11:26:51;;;;;;;2.83;1.88;;;;;;;18.35;83.29;101478.84;5116404;28;20051;-82
2022/10/26 11:30:00;;;;;;;3.03;1.70;;;;;;;18.41;84.17;101495.31;5115596;28;20072;-82
2022/10/26 11:32:47;;;;;;;3.13;1.73;;;;;;;18.43;83.36;101493.50;5116824;28;20137;-82
2022/10/26 11:35:39;;;;;;;2.92;1.98;;;;;;;18.46;83.30;101490.75;5121725;22;20608;-82
2022/10/26 11:38:29;;;;;;;3.22;2.38;;;;;;;18.46;82.11;101496.03;5102304;22;20134;-82
2022/10/26 11:41:17;;;;;;;2.80;2.35;;;;;;;18.43;81.72;101496.13;5110933;28;20039;-81
2022/10/26 11:43:46;;;;;;;2.88;2.40;;;;;;;18.42;81.84;101487.38;5113626;28;20046;-82